createdAt,value
2018-05-23T00:01:06.450Z,59.00
2018-05-23T00:03:33.991Z,59.10
2018-05-23T00:06:01.546Z,59.20
2018-05-23T00:08:29.082Z,59.20
2018-05-23T00:10:56.644Z,59.90
2018-05-23T00:13:24.950Z,59.60
2018-05-23T00:15:52.528Z,59.50
2018-05-23T00:18:20.059Z,59.60
2018-05-23T00:20:47.630Z,59.70
2018-05-23T00:23:15.174Z,59.90
2018-05-23T00:25:42.739Z,59.90
2018-05-23T00:28:10.282Z,59.90
2018-05-23T00:30:38.601Z,60.20
2018-05-23T00:33:06.136Z,60.20
2018-05-23T00:35:33.696Z,60.20
2018-05-23T00:38:01.230Z,60.40
2018-05-23T00:40:29.550Z,60.50
2018-05-23T00:42:57.096Z,60.40
2018-05-23T00:45:24.665Z,60.50
2018-05-23T00:47:52.207Z,60.60
2018-05-23T00:50:19.797Z,60.70
2018-05-23T00:52:48.112Z,60.90
2018-05-23T00:55:27.600Z,60.80
2018-05-23T00:57:55.142Z,60.90
2018-05-23T01:00:22.680Z,61.00
2018-05-23T01:02:51.007Z,60.90
2018-05-23T01:05:18.541Z,60.90
2018-05-23T01:07:46.101Z,61.00
2018-05-23T01:10:13.642Z,61.00
2018-05-23T01:12:41.966Z,60.90
2018-05-23T01:15:09.506Z,60.90
2018-05-23T01:17:37.075Z,60.90
2018-05-23T01:20:04.615Z,61.10
2018-05-23T01:22:32.179Z,61.10
2018-05-23T01:24:59.727Z,61.10
2018-05-23T01:27:28.056Z,61.00
2018-05-23T01:29:55.597Z,61.00
2018-05-23T01:32:23.168Z,61.10
2018-05-23T01:34:50.712Z,61.10
2018-05-23T01:37:18.272Z,61.10
2018-05-23T01:39:45.815Z,61.20
2018-05-23T01:42:14.150Z,61.20
2018-05-23T01:44:41.696Z,61.20
2018-05-23T01:47:09.262Z,61.30
2018-05-23T01:49:36.802Z,61.50
2018-05-23T01:52:04.368Z,61.50
2018-05-23T01:54:31.928Z,61.40
2018-05-23T01:56:59.495Z,61.40
2018-05-23T01:59:27.029Z,61.50
2018-05-23T02:01:54.606Z,61.70
2018-05-23T02:04:22.156Z,61.80
2018-05-23T02:06:49.722Z,61.70
2018-05-23T02:09:17.268Z,61.90
2018-05-23T02:11:44.843Z,62.00
2018-05-23T02:14:12.398Z,62.20
2018-05-23T02:16:39.973Z,62.00
2018-05-23T02:19:07.510Z,62.20
2018-05-23T02:21:35.070Z,62.30
2018-05-23T02:24:02.620Z,62.30
2018-05-23T02:26:30.191Z,62.30
2018-05-23T02:28:57.752Z,62.30
2018-05-23T02:31:25.311Z,62.40
2018-05-23T02:33:52.856Z,62.50
2018-05-23T02:36:20.421Z,62.40
2018-05-23T02:38:47.951Z,62.40
2018-05-23T02:41:16.277Z,62.60
2018-05-23T02:43:43.819Z,62.60
2018-05-23T02:46:17.094Z,62.70
2018-05-23T02:48:45.400Z,62.70
2018-05-23T02:51:12.955Z,63.40
2018-05-23T02:53:40.516Z,62.60
2018-05-23T02:56:08.059Z,62.70
2018-05-23T02:58:36.389Z,62.70
2018-05-23T03:01:03.934Z,62.60
2018-05-23T03:03:31.495Z,62.70
2018-05-23T03:05:59.042Z,62.80
2018-05-23T03:08:26.623Z,62.80
2018-05-23T03:10:54.159Z,62.70
2018-05-23T03:13:21.723Z,62.70
2018-05-23T03:15:49.262Z,62.90
2018-05-23T03:18:17.582Z,62.80
2018-05-23T03:20:45.119Z,62.80
2018-05-23T03:23:12.690Z,63.00
2018-05-23T03:25:40.233Z,63.00
2018-05-23T03:28:07.789Z,63.00
2018-05-23T03:30:35.327Z,63.00
2018-05-23T03:33:03.658Z,63.10
2018-05-23T03:35:31.328Z,63.10
2018-05-23T03:37:58.887Z,63.10
2018-05-23T03:40:26.430Z,63.10
2018-05-23T03:42:53.990Z,63.20
2018-05-23T03:45:21.530Z,63.00
2018-05-23T03:47:49.096Z,63.20
2018-05-23T03:50:16.650Z,63.30
2018-05-23T03:52:44.215Z,63.40
2018-05-23T03:55:11.765Z,63.30
2018-05-23T03:57:39.334Z,63.40
2018-05-23T04:00:18.777Z,63.40
2018-05-23T04:02:58.193Z,63.60
2018-05-23T04:05:38.631Z,63.60
2018-05-23T04:08:06.136Z,63.60
2018-05-23T04:10:33.669Z,63.60
2018-05-23T04:13:01.998Z,63.80
2018-05-23T04:15:29.599Z,63.70
2018-05-23T04:17:57.140Z,63.60
2018-05-23T04:20:24.685Z,63.70
2018-05-23T04:22:52.247Z,63.70
2018-05-23T04:25:19.890Z,63.70
2018-05-23T04:27:47.447Z,63.80
2018-05-23T04:30:14.986Z,63.80
2018-05-23T04:32:42.552Z,63.70
2018-05-23T04:35:10.102Z,63.70
2018-05-23T04:37:37.670Z,63.80
2018-05-23T04:40:05.234Z,63.80
2018-05-23T04:42:32.769Z,63.70
2018-05-23T04:45:01.099Z,63.90
2018-05-23T04:47:28.640Z,63.80
2018-05-23T04:49:56.209Z,63.80
2018-05-23T04:52:23.753Z,63.80
2018-05-23T04:54:51.315Z,63.80
2018-05-23T04:57:18.863Z,63.90
2018-05-23T04:59:46.429Z,63.90
2018-05-23T05:02:13.972Z,63.90
2018-05-23T05:04:42.388Z,64.00
2018-05-23T05:07:09.936Z,64.10
2018-05-23T05:09:37.500Z,64.10
2018-05-23T05:12:05.044Z,64.10
2018-05-23T05:14:32.606Z,64.10
2018-05-23T05:17:00.279Z,64.10
2018-05-23T05:19:27.854Z,64.10
2018-05-23T05:21:55.394Z,64.20
2018-05-23T05:24:22.967Z,64.30
2018-05-23T05:26:50.497Z,64.40
2018-05-23T05:29:18.826Z,64.40
2018-05-23T05:31:46.385Z,64.40
2018-05-23T05:34:13.950Z,64.30
2018-05-23T05:36:41.500Z,64.40
2018-05-23T05:39:09.064Z,64.40
2018-05-23T05:41:36.610Z,64.50
2018-05-23T05:44:04.203Z,64.60
2018-05-23T05:46:31.742Z,64.60
2018-05-23T05:48:59.304Z,64.70
2018-05-23T05:51:26.847Z,64.70
2018-05-23T05:53:54.407Z,64.80
2018-05-23T05:56:26.780Z,64.50
2018-05-23T05:58:56.930Z,68.40
2018-05-23T06:01:24.483Z,68.40
2018-05-23T06:03:52.050Z,68.20
2018-05-23T06:06:19.598Z,68.00
2018-05-23T06:08:47.180Z,67.90
2018-05-23T06:11:14.728Z,67.70
2018-05-23T06:13:42.290Z,67.70
2018-05-23T06:16:09.843Z,67.70
2018-05-23T06:18:37.409Z,67.70
2018-05-23T06:21:05.047Z,67.80
2018-05-23T06:23:32.614Z,67.80
2018-05-23T06:26:00.189Z,67.80
2018-05-23T06:28:28.450Z,67.80
2018-05-23T06:30:56.218Z,68.00
2018-05-23T06:33:24.690Z,68.00
2018-05-23T06:35:52.258Z,67.80
2018-05-23T06:38:19.798Z,68.00
2018-05-23T06:40:47.373Z,68.00
2018-05-23T06:43:14.922Z,68.00
2018-05-23T06:45:42.492Z,68.10
2018-05-23T06:48:10.031Z,68.20
2018-05-23T06:50:37.593Z,68.30
2018-05-23T06:53:05.148Z,68.30
2018-05-23T06:55:32.802Z,68.40
2018-05-23T06:58:00.294Z,68.40
2018-05-23T07:00:27.854Z,68.40
2018-05-23T07:02:55.402Z,68.40
2018-05-23T07:05:22.972Z,68.50
2018-05-23T07:07:50.537Z,68.50
2018-05-23T07:10:18.107Z,68.50
2018-05-23T07:12:45.651Z,68.70
2018-05-23T07:15:13.219Z,68.70
2018-05-23T07:17:40.760Z,68.80
2018-05-23T07:20:08.314Z,68.70
2018-05-23T07:22:35.853Z,68.90
2018-05-23T07:25:04.204Z,68.90
2018-05-23T07:27:31.734Z,68.90
2018-05-23T07:29:59.306Z,68.90
2018-05-23T07:32:26.863Z,69.10
2018-05-23T07:34:54.433Z,69.20
2018-05-23T07:37:21.995Z,68.90
2018-05-23T07:39:49.568Z,69.30
2018-05-23T07:42:17.121Z,69.20
2018-05-23T07:44:44.686Z,69.50
2018-05-23T07:47:12.246Z,69.40
2018-05-23T07:49:39.823Z,69.50
2018-05-23T07:52:07.369Z,69.60
2018-05-23T07:54:34.941Z,70.20
2018-05-23T07:57:02.487Z,69.60
2018-05-23T07:59:30.061Z,69.60
2018-05-23T08:01:57.595Z,69.60
2018-05-23T08:04:25.151Z,69.50
2018-05-23T08:06:52.692Z,69.50
2018-05-23T08:09:20.263Z,69.40
2018-05-23T08:11:47.811Z,69.50
2018-05-23T08:14:15.392Z,69.50
2018-05-23T08:16:42.932Z,69.60
2018-05-23T08:19:10.492Z,69.70
2018-05-23T08:21:38.038Z,69.80
2018-05-23T08:24:05.590Z,69.60
2018-05-23T08:26:33.161Z,69.50
2018-05-23T08:29:00.707Z,69.50
2018-05-23T08:31:29.040Z,69.50
2018-05-23T08:33:56.596Z,69.40
2018-05-23T08:36:24.204Z,69.50
2018-05-23T08:38:51.764Z,69.40
2018-05-23T08:41:20.102Z,69.50
2018-05-23T08:43:47.646Z,69.50
2018-05-23T08:46:15.206Z,69.60
2018-05-23T08:48:42.750Z,69.40
2018-05-23T08:51:10.332Z,69.50
2018-05-23T08:53:37.879Z,69.50
2018-05-23T08:56:05.450Z,69.60
2018-05-23T08:58:32.992Z,69.70
2018-05-23T09:01:00.562Z,69.70
2018-05-23T09:03:28.098Z,69.60
2018-05-23T09:05:55.662Z,69.60
2018-05-23T09:08:23.212Z,69.60
2018-05-23T09:10:50.776Z,69.70
2018-05-23T09:13:18.327Z,69.60
2018-05-23T09:15:45.900Z,69.60
2018-05-23T09:18:13.454Z,69.50
2018-05-23T09:20:41.031Z,69.40
2018-05-23T09:23:08.577Z,69.20
2018-05-23T09:25:36.156Z,69.10
2018-05-23T09:28:03.730Z,69.00
2018-05-23T09:30:31.300Z,68.80
2018-05-23T09:32:58.844Z,68.60
2018-05-23T09:35:26.390Z,68.30
2018-05-23T09:37:53.954Z,68.00
2018-05-23T09:40:21.602Z,67.20
2018-05-23T09:42:49.169Z,66.90
2018-05-23T09:45:16.720Z,66.50
2018-05-23T09:47:45.059Z,66.30
2018-05-23T09:50:12.628Z,66.30
2018-05-23T09:52:40.946Z,65.60
2018-05-23T09:55:08.576Z,65.50
2018-05-23T09:57:36.080Z,65.00
2018-05-23T10:00:03.651Z,64.40
2018-05-23T10:02:31.238Z,64.00
2018-05-23T10:04:58.815Z,63.60
2018-05-23T10:07:27.130Z,62.70
2018-05-23T10:09:54.694Z,62.70
2018-05-23T10:12:22.239Z,62.40
2018-05-23T10:14:49.799Z,62.10
2018-05-23T10:17:17.347Z,61.90
2018-05-23T10:19:44.895Z,61.50
2018-05-23T10:22:13.231Z,61.20
2018-05-23T10:24:40.787Z,61.20
2018-05-23T10:27:08.349Z,61.20
2018-05-23T10:29:35.887Z,61.10
2018-05-23T10:32:03.455Z,60.50
2018-05-23T10:34:30.993Z,60.00
2018-05-23T10:36:58.564Z,60.00
2018-05-23T10:39:26.114Z,59.90
2018-05-23T10:41:53.695Z,59.70
2018-05-23T10:44:21.241Z,59.50
2018-05-23T10:46:48.810Z,59.70
2018-05-23T10:49:16.346Z,59.70
2018-05-23T10:51:44.749Z,59.60
2018-05-23T10:54:13.025Z,59.70
2018-05-23T10:56:40.582Z,59.70
2018-05-23T10:59:08.122Z,60.00
2018-05-23T11:01:36.443Z,59.90
2018-05-23T11:04:03.979Z,59.90
2018-05-23T11:06:31.540Z,59.30
2018-05-23T11:08:59.099Z,59.00
2018-05-23T11:11:26.670Z,58.60
2018-05-23T11:13:54.210Z,58.60
2018-05-23T11:16:21.770Z,58.50
2018-05-23T11:18:49.311Z,58.50
2018-05-23T11:21:17.636Z,58.40
2018-05-23T11:23:45.171Z,58.40
2018-05-23T11:26:12.850Z,58.00
2018-05-23T11:28:41.255Z,57.70
2018-05-23T11:31:08.817Z,57.80
2018-05-23T11:33:36.364Z,58.70
2018-05-23T11:36:03.928Z,59.20
2018-05-23T11:38:31.480Z,60.20
2018-05-23T11:40:59.043Z,61.10
2018-05-23T11:43:26.583Z,61.60
2018-05-23T11:45:54.147Z,62.00
2018-05-23T11:48:21.689Z,62.10
2018-05-23T11:50:49.259Z,61.10
2018-05-23T11:53:16.805Z,60.60
2018-05-23T11:55:44.376Z,59.50
2018-05-23T11:58:11.918Z,58.70
2018-05-23T12:00:40.250Z,57.70
2018-05-23T12:03:07.796Z,57.70
2018-05-23T12:05:35.363Z,57.10
2018-05-23T12:08:02.903Z,56.90
2018-05-23T12:10:30.521Z,56.70
2018-05-23T12:12:58.028Z,56.50
2018-05-23T12:15:25.594Z,56.30
2018-05-23T12:17:53.136Z,55.60
2018-05-23T12:20:20.682Z,56.20
2018-05-23T12:22:48.249Z,56.20
2018-05-23T12:25:15.833Z,56.50
2018-05-23T12:27:43.393Z,56.50
2018-05-23T12:30:10.929Z,56.10
2018-05-23T12:32:38.492Z,56.00
2018-05-23T12:35:06.034Z,56.20
2018-05-23T12:37:34.362Z,56.10
2018-05-23T12:40:01.903Z,55.90
2018-05-23T12:42:29.458Z,56.30
2018-05-23T12:44:56.994Z,56.30
2018-05-23T12:47:25.314Z,57.10
2018-05-23T12:49:52.859Z,57.10
2018-05-23T12:52:20.414Z,57.10
2018-05-23T12:54:47.954Z,57.20
2018-05-23T12:57:16.284Z,58.40
2018-05-23T12:59:43.821Z,58.40
2018-05-23T13:02:11.387Z,59.30
2018-05-23T13:04:38.934Z,59.90
2018-05-23T13:07:06.495Z,60.60
2018-05-23T13:09:34.055Z,61.10
2018-05-23T13:12:01.619Z,60.00
2018-05-23T13:14:29.152Z,59.90
2018-05-23T13:16:57.484Z,60.10
2018-05-23T13:19:25.033Z,60.00
2018-05-23T13:21:53.403Z,60.80
2018-05-23T13:24:20.947Z,60.80
2018-05-23T13:26:48.511Z,60.90
2018-05-23T13:29:16.055Z,60.90
2018-05-23T13:31:43.620Z,60.70
2018-05-23T13:34:11.164Z,60.70
2018-05-23T13:36:39.483Z,60.60
2018-05-23T13:39:07.035Z,60.50
2018-05-23T13:41:34.609Z,60.40
2018-05-23T13:44:02.157Z,60.50
2018-05-23T13:46:29.725Z,60.40
2018-05-23T13:48:57.275Z,60.40
2018-05-23T13:51:24.847Z,60.30
2018-05-23T13:53:52.394Z,60.30
2018-05-23T13:56:19.960Z,60.50
2018-05-23T13:58:47.503Z,60.50
2018-05-23T14:01:15.066Z,60.60
2018-05-23T14:03:42.615Z,60.60
2018-05-23T14:06:10.945Z,60.20
2018-05-23T14:08:38.483Z,60.10
2018-05-23T14:11:06.050Z,60.20
2018-05-23T14:13:33.603Z,60.10
2018-05-23T14:16:01.154Z,60.30
2018-05-23T14:18:29.034Z,60.70
2018-05-23T14:20:56.569Z,65.10
2018-05-23T14:23:24.139Z,60.10
2018-05-23T14:25:52.444Z,60.50
2018-05-23T14:28:20.004Z,60.40
2018-05-23T14:30:47.964Z,60.70
2018-05-23T14:33:15.826Z,60.60
2018-05-23T14:35:43.441Z,60.40
2018-05-23T14:38:11.793Z,60.50
2018-05-23T14:40:39.333Z,60.50
2018-05-23T14:43:06.991Z,60.80
2018-05-23T14:45:34.525Z,61.10
2018-05-23T14:48:02.086Z,61.20
2018-05-23T14:50:29.618Z,61.00
2018-05-23T14:52:57.179Z,61.20
2018-05-23T14:55:24.715Z,60.80
2018-05-23T14:57:52.271Z,60.80
2018-05-23T15:00:19.814Z,60.80
2018-05-23T15:02:47.384Z,60.60
2018-05-23T15:05:14.918Z,60.80
2018-05-23T15:07:42.479Z,61.10
2018-05-23T15:10:10.015Z,61.60
2018-05-23T15:12:38.339Z,61.10
2018-05-23T15:15:05.875Z,61.10
2018-05-23T15:17:33.442Z,61.40
2018-05-23T15:20:01.090Z,61.40
2018-05-23T15:22:28.626Z,61.90
2018-05-23T15:24:56.940Z,61.80
2018-05-23T15:27:24.508Z,61.70
2018-05-23T15:29:52.047Z,61.80
2018-05-23T15:32:19.611Z,61.90
2018-05-23T15:34:47.163Z,61.70
2018-05-23T15:37:14.729Z,61.70
2018-05-23T15:39:42.266Z,61.90
2018-05-23T15:42:10.603Z,62.10
2018-05-23T15:44:38.135Z,62.00
2018-05-23T15:47:05.699Z,62.20
2018-05-23T15:49:33.231Z,62.00
2018-05-23T15:52:01.554Z,62.10
2018-05-23T15:54:29.091Z,62.00
2018-05-23T15:56:56.663Z,62.20
2018-05-23T15:59:24.206Z,62.40
2018-05-23T16:01:51.772Z,62.20
2018-05-23T16:04:19.307Z,62.10
2018-05-23T16:06:47.638Z,62.20
2018-05-23T16:09:15.242Z,62.20
2018-05-23T16:11:42.761Z,62.30
2018-05-23T16:14:10.504Z,62.20
2018-05-23T16:16:38.049Z,62.20
2018-05-23T16:19:05.607Z,62.30
2018-05-23T16:21:33.154Z,62.30
2018-05-23T16:24:01.486Z,62.50
2018-05-23T16:26:29.020Z,62.50
2018-05-23T16:28:56.583Z,62.40
2018-05-23T16:31:24.115Z,62.70
2018-05-23T16:33:52.437Z,62.60
2018-05-23T16:36:19.972Z,62.60
2018-05-23T16:38:47.548Z,62.60
2018-05-23T16:41:15.087Z,62.60
2018-05-23T16:43:42.648Z,62.70
2018-05-23T16:46:10.195Z,62.70
2018-05-23T16:48:38.522Z,62.90
2018-05-23T16:51:06.074Z,63.60
2018-05-23T16:53:33.635Z,63.00
2018-05-23T16:56:01.174Z,62.90
2018-05-23T16:58:28.739Z,62.80
2018-05-23T17:00:56.283Z,62.90
2018-05-23T17:03:23.839Z,62.90
2018-05-23T17:05:51.381Z,63.00
2018-05-23T17:08:19.699Z,62.90
2018-05-23T17:10:47.237Z,62.90
2018-05-23T17:13:14.789Z,62.90
2018-05-23T17:15:43.102Z,56.30
2018-05-23T17:18:10.662Z,56.30
2018-05-23T17:20:38.228Z,54.40
2018-05-23T17:23:05.791Z,53.50
2018-05-23T17:25:33.333Z,52.90
2018-05-23T17:28:00.891Z,52.50
2018-05-23T17:30:28.434Z,52.40
2018-05-23T17:32:56.002Z,52.40
2018-05-23T17:35:23.538Z,52.50
2018-05-23T17:37:51.870Z,52.70
2018-05-23T17:40:19.471Z,52.60
2018-05-23T17:42:46.983Z,52.60
2018-05-23T17:45:14.543Z,52.70
2018-05-23T17:47:42.103Z,52.70
2018-05-23T17:50:09.658Z,52.50
2018-05-23T17:52:37.219Z,52.50
2018-05-23T17:55:04.760Z,52.50
2018-05-23T17:57:32.322Z,52.50
2018-05-23T17:59:59.855Z,52.50
2018-05-23T18:02:28.182Z,52.60
2018-05-23T18:04:55.716Z,52.50
2018-05-23T18:07:23.259Z,52.50
2018-05-23T18:09:51.596Z,52.70
2018-05-23T18:12:19.183Z,52.60
2018-05-23T18:14:46.744Z,52.70
2018-05-23T18:17:14.280Z,52.80
2018-05-23T18:19:41.846Z,52.80
2018-05-23T18:22:09.383Z,52.90
2018-05-23T18:24:36.956Z,52.80
2018-05-23T18:27:04.599Z,52.80
2018-05-23T18:29:32.218Z,52.60
2018-05-23T18:31:59.723Z,52.70
2018-05-23T18:34:27.285Z,52.60
2018-05-23T18:36:54.827Z,52.80
2018-05-23T18:39:22.400Z,53.00
2018-05-23T18:41:49.951Z,52.70
2018-05-23T18:44:17.624Z,52.50
2018-05-23T18:46:45.163Z,52.50
2018-05-23T18:49:12.723Z,52.60
2018-05-23T18:51:40.266Z,52.70
2018-05-23T18:54:08.592Z,53.30
2018-05-23T18:56:36.151Z,53.20
2018-05-23T18:59:04.186Z,54.10
2018-05-23T19:01:32.486Z,55.80
2018-05-23T19:04:00.108Z,55.70
2018-05-23T19:06:28.419Z,56.70
2018-05-23T19:08:56.520Z,56.70
2018-05-23T19:11:24.186Z,57.00
2018-05-23T19:13:51.975Z,57.30
2018-05-23T19:16:19.491Z,57.60
2018-05-23T19:18:47.067Z,57.80
2018-05-23T19:21:14.631Z,58.00
2018-05-23T19:23:42.503Z,58.30
2018-05-23T19:26:10.066Z,58.50
2018-05-23T19:28:37.630Z,58.50
2018-05-23T19:31:05.165Z,58.60
2018-05-23T19:33:32.745Z,58.70
2018-05-23T19:36:00.313Z,59.00
2018-05-23T19:38:27.887Z,59.10
2018-05-23T19:40:55.423Z,59.20
2018-05-23T19:43:22.984Z,59.30
2018-05-23T19:45:50.522Z,59.40
2018-05-23T19:48:18.103Z,59.50
2018-05-23T19:50:45.649Z,59.50
2018-05-23T19:53:13.217Z,59.70
2018-05-23T19:55:40.762Z,59.80
2018-05-23T19:58:08.322Z,59.90
2018-05-23T20:00:35.866Z,60.10
2018-05-23T20:03:03.443Z,60.30
2018-05-23T20:05:30.983Z,60.30
2018-05-23T20:07:58.582Z,60.50
2018-05-23T20:10:26.126Z,60.60
2018-05-23T20:12:53.660Z,60.70
2018-05-23T20:15:21.214Z,60.70
2018-05-23T20:17:49.521Z,61.00
2018-05-23T20:20:17.091Z,61.00
2018-05-23T20:22:44.632Z,61.20
2018-05-23T20:25:12.191Z,61.20
2018-05-23T20:27:39.739Z,61.30
2018-05-23T20:30:07.307Z,61.50
2018-05-23T20:32:34.843Z,61.60
2018-05-23T20:35:03.174Z,62.00
2018-05-23T20:37:30.716Z,62.00
2018-05-23T20:39:58.292Z,62.00
2018-05-23T20:42:25.841Z,62.20
2018-05-23T20:44:53.416Z,62.40
2018-05-23T20:47:20.961Z,62.30
2018-05-23T20:49:48.531Z,62.50
2018-05-23T20:52:16.073Z,62.60
2018-05-23T20:54:43.638Z,62.60
2018-05-23T20:57:11.168Z,62.70
2018-05-23T20:59:39.498Z,62.90
2018-05-23T21:02:07.034Z,62.80
2018-05-23T21:04:34.608Z,63.00
2018-05-23T21:07:02.145Z,63.10
2018-05-23T21:09:29.697Z,63.20
2018-05-23T21:11:57.243Z,63.20
2018-05-23T21:14:25.587Z,63.40
2018-05-23T21:16:53.126Z,63.30
2018-05-23T21:19:20.707Z,63.40
2018-05-23T21:21:48.246Z,63.40
2018-05-23T21:24:15.811Z,63.40
2018-05-23T21:26:43.346Z,63.50
2018-05-23T21:29:10.907Z,63.50
2018-05-23T21:31:38.442Z,63.50
2018-05-23T21:34:06.767Z,63.80
2018-05-23T21:36:34.312Z,63.70
2018-05-23T21:39:01.982Z,63.80
2018-05-23T21:41:29.523Z,63.90
2018-05-23T21:43:57.080Z,63.90
2018-05-23T21:46:24.623Z,64.00
2018-05-23T21:48:52.946Z,64.20
2018-05-23T21:51:20.474Z,64.00
2018-05-23T21:53:48.804Z,64.20
2018-05-23T21:56:16.346Z,64.10
2018-05-23T21:58:43.913Z,64.30
2018-05-23T22:01:13.386Z,64.30
2018-05-23T22:03:40.944Z,64.30
2018-05-23T22:06:08.478Z,64.40
2018-05-23T22:08:36.787Z,64.50
2018-05-23T22:11:04.349Z,64.50
2018-05-23T22:13:31.883Z,64.60
2018-05-23T22:16:00.206Z,64.80
2018-05-23T22:18:27.739Z,64.80
2018-05-23T22:20:55.301Z,64.80
2018-05-23T22:23:22.842Z,64.80
2018-05-23T22:25:51.161Z,64.80
2018-05-23T22:28:18.710Z,64.90
2018-05-23T22:30:46.271Z,64.90
2018-05-23T22:33:13.811Z,65.10
2018-05-23T22:35:41.377Z,65.20
2018-05-23T22:38:08.923Z,65.30
2018-05-23T22:40:37.255Z,65.40
2018-05-23T22:43:04.794Z,65.40
2018-05-23T22:45:32.356Z,65.50
2018-05-23T22:47:59.891Z,65.40
2018-05-23T22:50:27.452Z,65.50
2018-05-23T22:52:55.036Z,65.40
2018-05-23T22:55:22.609Z,65.50
2018-05-23T22:57:50.148Z,65.50
2018-05-23T23:00:21.422Z,65.70
2018-05-23T23:02:48.967Z,65.80
2018-05-23T23:05:16.527Z,65.90
2018-05-23T23:07:44.061Z,66.00
2018-05-23T23:10:11.631Z,66.00
2018-05-23T23:12:39.173Z,66.00
2018-05-23T23:15:07.511Z,66.30
2018-05-23T23:17:35.053Z,66.30
2018-05-23T23:20:02.591Z,66.30
2018-05-23T23:22:38.866Z,66.40
2018-05-23T23:25:06.413Z,66.50
2018-05-23T23:27:33.972Z,66.70
2018-05-23T23:30:01.514Z,66.70
2018-05-23T23:32:29.843Z,66.70
2018-05-23T23:34:57.383Z,66.70
2018-05-23T23:37:24.946Z,66.90
2018-05-23T23:39:52.486Z,67.00
2018-05-23T23:42:20.059Z,67.00
2018-05-23T23:44:47.598Z,67.10
2018-05-23T23:47:15.924Z,67.30
2018-05-23T23:49:43.473Z,67.20
2018-05-23T23:52:11.026Z,67.20
2018-05-23T23:54:38.651Z,67.30
2018-05-23T23:57:06.174Z,67.30
2018-05-23T23:59:33.710Z,68.30
